createdAt,value
2018-09-04T00:07:01.390Z,11.3
2018-09-04T00:12:01.388Z,11.0
2018-09-04T00:17:06.382Z,11.6
2018-09-04T00:22:01.418Z,11.9
2018-09-04T00:27:06.399Z,12.2
2018-09-04T00:32:06.365Z,12.3
2018-09-04T00:37:06.451Z,12.0
2018-09-04T00:42:06.414Z,11.8
2018-09-04T00:47:01.485Z,11.9
2018-09-04T00:52:01.423Z,11.2
2018-09-04T00:57:06.394Z,10.7
2018-09-04T01:02:06.399Z,11.0
2018-09-04T01:07:01.487Z,11.7
2018-09-04T01:12:01.421Z,11.6
2018-09-04T01:17:01.440Z,12.4
2018-09-04T01:22:01.464Z,13.0
2018-09-04T01:27:02.432Z,13.4
2018-09-04T01:32:01.347Z,13.4
2018-09-04T01:37:06.382Z,13.9
2018-09-04T01:42:01.382Z,13.5
2018-09-04T01:47:01.390Z,13.5
2018-09-04T01:52:01.379Z,13.5
2018-09-04T01:57:01.389Z,13.1
2018-09-04T02:02:01.383Z,12.5
2018-09-04T02:12:01.357Z,12.7
2018-09-04T02:22:01.389Z,11.9
2018-09-04T02:27:01.385Z,12.5
2018-09-04T02:32:01.388Z,12.4
2018-09-04T02:37:01.399Z,12.1
2018-09-04T02:42:01.388Z,12.4
2018-09-04T02:47:01.413Z,12.3
2018-09-04T02:52:06.398Z,11.5
2018-09-04T02:57:01.496Z,11.4
2018-09-04T03:02:01.420Z,11.0
2018-09-04T03:07:01.423Z,10.2
2018-09-04T03:12:01.427Z,10.3
2018-09-04T03:17:01.445Z,10.2
2018-09-04T03:27:01.421Z,9.6
2018-09-04T03:32:01.386Z,9.4
2018-09-04T03:37:01.393Z,9.2
2018-09-04T03:42:01.400Z,9.1
2018-09-04T03:47:01.471Z,9.4
2018-09-04T03:52:01.380Z,9.4
2018-09-04T03:57:01.454Z,9.7
2018-09-04T04:02:01.384Z,10.3
2018-09-04T04:07:01.423Z,11.4
2018-09-04T04:12:01.775Z,12.0
2018-09-04T04:17:01.385Z,13.0
2018-09-04T04:22:01.385Z,13.4
2018-09-04T04:27:01.357Z,13.4
2018-09-04T04:32:01.386Z,13.4
2018-09-04T04:37:01.422Z,14.2
2018-09-04T04:42:01.369Z,14.2
2018-09-04T04:48:02.008Z,14.4
2018-09-04T04:53:06.392Z,14.5
2018-09-04T04:58:01.349Z,13.9
2018-09-04T05:03:01.384Z,12.7
2018-09-04T05:08:01.414Z,12.2
2018-09-04T05:13:01.351Z,11.9
2018-09-04T05:18:01.383Z,11.4
2018-09-04T05:23:01.381Z,11.0
2018-09-04T05:28:01.421Z,10.8
2018-09-04T05:33:01.361Z,10.6
2018-09-04T05:38:01.392Z,10.6
2018-09-04T05:48:01.383Z,11.0
2018-09-04T05:53:01.455Z,11.2
2018-09-04T05:58:01.450Z,11.6
2018-09-04T06:03:01.395Z,11.4
2018-09-04T06:08:01.391Z,10.5
2018-09-04T06:13:01.350Z,10.3
2018-09-04T06:18:01.375Z,10.3
2018-09-04T06:23:01.351Z,10.0
2018-09-04T06:38:01.379Z,9.8
2018-09-04T06:43:01.355Z,9.4
2018-09-04T06:48:01.391Z,9.1
2018-09-04T06:53:06.394Z,8.6
2018-09-04T06:58:01.830Z,8.7
2018-09-04T07:03:01.413Z,8.6
2018-09-04T07:08:01.390Z,8.6
2018-09-04T07:13:01.392Z,8.8
2018-09-04T07:18:01.403Z,9.0
2018-09-04T07:23:01.392Z,8.7
2018-09-04T07:28:01.412Z,9.0
2018-09-04T07:33:01.381Z,8.8
2018-09-04T07:38:01.387Z,8.5
2018-09-04T07:43:01.387Z,7.8
2018-09-04T07:48:01.392Z,8.1
2018-09-04T07:53:01.359Z,7.7
2018-09-04T08:03:01.385Z,7.4
2018-09-04T08:08:01.388Z,7.7
2018-09-04T08:13:01.392Z,7.4
2018-09-04T08:18:06.394Z,7.4
2018-09-04T08:23:01.320Z,7.5
2018-09-04T08:28:01.387Z,7.2
2018-09-04T08:33:01.412Z,6.9
2018-09-04T08:38:01.392Z,7.0
2018-09-04T08:43:01.419Z,6.6
2018-09-04T08:48:01.416Z,6.4
2018-09-04T08:53:01.437Z,6.5
2018-09-04T09:03:01.393Z,5.9
2018-09-04T09:08:01.396Z,6.0
2018-09-04T09:13:01.400Z,5.8
2018-09-04T09:18:01.395Z,5.6
2018-09-04T09:23:01.353Z,5.7
2018-09-04T09:33:01.372Z,5.8
2018-09-04T09:38:01.384Z,5.8
2018-09-04T09:43:01.378Z,6.0
2018-09-04T09:48:01.397Z,6.1
2018-09-04T09:58:01.388Z,6.1
2018-09-04T10:03:01.389Z,6.2
2018-09-04T10:08:01.938Z,6.0
2018-09-04T10:13:01.358Z,6.0
2018-09-04T10:18:01.389Z,5.8
2018-09-04T10:24:01.380Z,5.7
2018-09-04T10:29:06.395Z,5.6
2018-09-04T10:39:01.421Z,6.1
2018-09-04T10:44:01.352Z,6.3
2018-09-04T10:49:01.383Z,6.0
2018-09-04T10:54:01.414Z,6.0
2018-09-04T10:59:01.389Z,5.4
2018-09-04T11:04:01.359Z,5.5
2018-09-04T11:14:01.400Z,5.8
2018-09-04T11:19:01.404Z,5.8
2018-09-04T11:24:01.353Z,6.2
2018-09-04T11:29:01.442Z,5.8
2018-09-04T11:34:06.446Z,5.2
2018-09-04T11:44:06.389Z,4.7
2018-09-04T11:49:06.391Z,4.3
2018-09-04T11:54:06.393Z,4.2
2018-09-04T11:59:01.425Z,4.2
2018-09-04T12:04:01.427Z,4.1
2018-09-04T12:09:06.396Z,4.1
2018-09-04T12:24:06.383Z,3.8
2018-09-04T12:29:06.365Z,3.7
2018-09-04T12:34:06.723Z,3.9
2018-09-04T12:39:01.458Z,4.2
2018-09-04T12:44:01.351Z,4.8
2018-09-04T12:49:01.462Z,5.0
2018-09-04T12:54:01.416Z,5.4
2018-09-04T12:59:01.391Z,5.6
2018-09-04T13:04:01.398Z,5.6
2018-09-04T13:09:01.514Z,5.4
2018-09-04T13:14:01.358Z,5.6
2018-09-04T13:19:01.384Z,5.4
2018-09-04T13:24:06.383Z,5.5
2018-09-04T13:29:01.405Z,5.5
2018-09-04T13:34:01.386Z,5.5
2018-09-04T13:39:06.463Z,5.6
2018-09-04T13:44:06.450Z,5.8
2018-09-04T13:49:01.386Z,5.8
2018-09-04T13:54:01.355Z,6.1
2018-09-04T13:59:01.446Z,6.1
2018-09-04T14:04:01.393Z,5.9
2018-09-04T14:10:01.380Z,5.8
2018-09-04T14:15:01.388Z,5.6
2018-09-04T14:20:01.343Z,5.2
2018-09-04T14:25:01.358Z,5.4
2018-09-04T14:40:01.348Z,5.7
2018-09-04T14:45:01.681Z,5.9
2018-09-04T14:50:01.396Z,6.0
2018-09-04T15:00:01.396Z,6.3
2018-09-04T15:06:01.480Z,6.1
2018-09-04T15:11:01.381Z,5.8
2018-09-04T15:21:01.383Z,6.4
2018-09-04T15:26:01.347Z,6.4
2018-09-04T15:41:01.413Z,6.0
2018-09-04T15:46:01.678Z,5.7
2018-09-04T15:51:01.393Z,5.5
2018-09-04T15:56:01.385Z,5.5
2018-09-04T16:01:01.389Z,5.5
2018-09-04T16:06:01.381Z,5.6
2018-09-04T16:11:01.442Z,5.7
2018-09-04T16:16:01.380Z,5.8
2018-09-04T16:21:01.385Z,5.8
2018-09-04T16:26:01.349Z,5.8
2018-09-04T16:31:06.395Z,6.1
2018-09-04T16:36:01.574Z,6.1
2018-09-04T16:41:01.384Z,5.8
2018-09-04T16:46:01.363Z,5.8
2018-09-04T16:51:01.356Z,5.6
2018-09-04T16:56:01.385Z,5.1
2018-09-04T17:01:01.388Z,5.4
2018-09-04T17:06:01.357Z,5.7
2018-09-04T17:11:01.378Z,5.7
2018-09-04T17:16:01.413Z,6.1
2018-09-04T17:21:01.381Z,6.3
2018-09-04T17:26:01.600Z,6.1
2018-09-04T17:31:01.383Z,6.0
2018-09-04T17:36:01.394Z,6.0
2018-09-04T17:41:01.392Z,5.7
2018-09-04T17:46:01.398Z,6.0
2018-09-04T17:52:01.443Z,6.0
2018-09-04T17:57:01.405Z,6.0
2018-09-04T18:02:01.351Z,6.0
2018-09-04T18:12:01.502Z,6.0
2018-09-04T18:17:01.389Z,5.8
2018-09-04T18:27:01.392Z,5.8
2018-09-04T18:37:01.401Z,6.0
2018-09-04T18:42:01.459Z,5.9
2018-09-04T18:47:01.372Z,6.0
2018-09-04T18:52:01.378Z,6.0
2018-09-04T18:57:01.386Z,6.2
2018-09-04T19:02:01.360Z,6.2
2018-09-04T19:07:01.395Z,6.3
2018-09-04T19:12:01.362Z,5.9
2018-09-04T19:17:01.381Z,6.1
2018-09-04T19:22:01.389Z,6.3
2018-09-04T19:27:01.384Z,6.5
2018-09-04T19:32:01.403Z,6.8
2018-09-04T19:37:01.386Z,7.2
2018-09-04T19:42:01.397Z,7.4
2018-09-04T19:47:01.378Z,7.4
2018-09-04T19:57:01.390Z,7.3
2018-09-04T20:07:01.394Z,7.2
2018-09-04T20:12:01.389Z,7.2
2018-09-04T20:17:01.395Z,7.5
2018-09-04T20:22:01.389Z,7.8
2018-09-04T20:27:01.395Z,8.3
2018-09-04T20:32:06.372Z,8.6
2018-09-04T20:37:01.391Z,8.7
2018-09-04T20:42:01.377Z,8.4
2018-09-04T20:47:01.462Z,8.6
2018-09-04T20:52:01.387Z,8.7
2018-09-04T20:57:01.386Z,8.5
2018-09-04T21:15:00.647Z,11.8
2018-09-04T21:20:00.628Z,10.6
2018-09-04T21:30:00.659Z,10.6
2018-09-04T21:35:00.655Z,10.7
2018-09-04T21:40:00.820Z,10.5
2018-09-04T21:45:00.653Z,11.3
2018-09-04T21:50:00.726Z,11.4
2018-09-04T21:55:00.633Z,11.6
2018-09-04T22:00:00.680Z,11.8
2018-09-04T22:05:00.672Z,11.9
2018-09-04T22:10:00.674Z,11.7
2018-09-04T22:15:00.673Z,12.3
2018-09-04T22:20:00.680Z,12.3
2018-09-04T22:25:00.683Z,12.3
2018-09-04T22:30:00.693Z,12.4
2018-09-04T22:40:00.649Z,11.6
2018-09-04T22:45:00.648Z,11.6
2018-09-04T22:50:00.668Z,11.6
2018-09-04T22:55:00.643Z,11.4
2018-09-04T23:00:00.682Z,11.8
2018-09-04T23:05:00.651Z,11.8
2018-09-04T23:10:00.645Z,12.0
2018-09-04T23:15:00.644Z,12.4
2018-09-04T23:20:00.714Z,12.8
2018-09-04T23:25:00.651Z,12.9
2018-09-04T23:30:00.652Z,12.8
2018-09-04T23:35:00.654Z,12.6
2018-09-04T23:40:00.659Z,12.1
2018-09-04T23:45:00.667Z,11.9
2018-09-04T23:50:00.661Z,11.6
2018-09-04T23:55:00.664Z,12.5
